createdAt,value
2019-03-26T00:00:43.722Z,14.50
2019-03-26T00:01:21.858Z,14.40
2019-03-26T00:01:58.603Z,14.13
2019-03-26T00:02:34.975Z,13.88
2019-03-26T00:03:11.396Z,15.55
2019-03-26T00:03:47.888Z,14.40
2019-03-26T00:04:24.568Z,14.80
2019-03-26T00:05:01.205Z,16.05
2019-03-26T00:05:37.511Z,15.18
2019-03-26T00:06:13.939Z,14.73
2019-03-26T00:06:50.468Z,16.30
2019-03-26T00:07:27.282Z,14.35
2019-03-26T00:08:03.737Z,17.20
2019-03-26T00:08:39.979Z,16.23
2019-03-26T00:09:16.416Z,15.60
2019-03-26T00:09:52.736Z,16.15
2019-03-26T00:10:28.895Z,17.73
2019-03-26T00:11:05.180Z,16.15
2019-03-26T00:11:42.049Z,16.65
2019-03-26T00:12:18.675Z,17.57
2019-03-26T00:12:55.006Z,16.42
2019-03-26T00:13:31.371Z,16.37
2019-03-26T00:14:07.682Z,17.65
2019-03-26T00:14:44.073Z,17.32
2019-03-26T00:15:20.393Z,17.20
2019-03-26T00:15:56.810Z,17.15
2019-03-26T00:16:33.475Z,18.45
2019-03-26T00:17:11.010Z,17.92
2019-03-26T00:17:47.356Z,18.12
2019-03-26T00:18:23.598Z,18.40
2019-03-26T00:18:59.963Z,19.92
2019-03-26T00:19:36.307Z,17.57
2019-03-26T00:20:12.870Z,19.30
2019-03-26T00:20:49.224Z,17.82
2019-03-26T00:21:25.681Z,19.15
2019-03-26T00:22:02.576Z,18.55
2019-03-26T00:22:39.110Z,19.23
2019-03-26T00:23:15.524Z,19.60
2019-03-26T00:23:51.844Z,18.05
2019-03-26T00:24:28.422Z,20.57
2019-03-26T00:25:04.620Z,19.67
2019-03-26T00:25:40.872Z,20.60
2019-03-26T00:26:17.315Z,18.45
2019-03-26T00:26:53.767Z,19.05
2019-03-26T00:27:30.218Z,18.80
2019-03-26T00:28:07.042Z,18.48
2019-03-26T00:28:43.421Z,18.55
2019-03-26T00:29:19.779Z,18.32
2019-03-26T00:29:56.366Z,20.00
2019-03-26T00:30:32.686Z,19.65
2019-03-26T00:31:09.059Z,18.37
2019-03-26T00:31:45.764Z,20.55
2019-03-26T00:32:23.574Z,18.65
2019-03-26T00:33:00.154Z,20.45
2019-03-26T00:33:36.936Z,19.98
2019-03-26T00:34:19.215Z,19.10
2019-03-26T00:34:51.598Z,20.37
2019-03-26T00:35:27.909Z,20.57
2019-03-26T00:36:04.262Z,20.90
2019-03-26T00:36:40.789Z,21.07
2019-03-26T00:37:17.177Z,20.77
2019-03-26T00:37:53.665Z,20.80
2019-03-26T00:38:30.180Z,20.70
2019-03-26T00:39:07.766Z,20.27
2019-03-26T00:39:44.169Z,20.27
2019-03-26T00:40:20.841Z,21.12
2019-03-26T00:40:57.142Z,21.90
2019-03-26T00:41:33.648Z,22.13
2019-03-26T00:42:10.259Z,19.82
2019-03-26T00:42:46.676Z,23.47
2019-03-26T00:43:23.150Z,21.93
2019-03-26T00:43:59.581Z,21.45
2019-03-26T00:44:36.025Z,21.00
2019-03-26T00:45:12.647Z,20.80
2019-03-26T00:45:49.218Z,21.02
2019-03-26T00:46:25.612Z,21.20
2019-03-26T00:47:01.897Z,20.90
2019-03-26T00:47:38.460Z,21.23
2019-03-26T00:48:14.794Z,21.20
2019-03-26T00:48:51.497Z,20.27
2019-03-26T00:49:27.985Z,21.35
2019-03-26T00:50:04.626Z,20.40
2019-03-26T00:50:41.011Z,20.30
2019-03-26T00:51:17.750Z,21.37
2019-03-26T00:51:54.012Z,21.70
2019-03-26T00:52:30.440Z,22.80
2019-03-26T00:53:06.760Z,21.77
2019-03-26T00:53:43.288Z,21.45
2019-03-26T00:54:19.699Z,23.30
2019-03-26T00:54:56.165Z,22.35
2019-03-26T00:55:32.737Z,21.75
2019-03-26T00:56:09.010Z,20.75
2019-03-26T00:56:45.449Z,23.35
2019-03-26T00:57:21.728Z,23.55
2019-03-26T00:57:58.063Z,22.42
2019-03-26T00:58:34.519Z,24.15
2019-03-26T00:59:10.769Z,23.10
2019-03-26T00:59:47.214Z,23.07
2019-03-26T01:00:39.697Z,24.50
2019-03-26T01:01:16.186Z,24.95
2019-03-26T01:01:52.625Z,25.02
2019-03-26T01:02:29.175Z,23.10
2019-03-26T01:03:05.555Z,22.75
2019-03-26T01:03:42.011Z,23.52
2019-03-26T01:04:31.853Z,24.65
2019-03-26T01:04:56.512Z,23.80
2019-03-26T01:05:32.837Z,25.43
2019-03-26T01:06:09.302Z,23.98
2019-03-26T01:06:45.612Z,26.23
2019-03-26T01:07:22.033Z,25.20
2019-03-26T01:07:58.453Z,25.55
2019-03-26T01:08:34.943Z,24.63
2019-03-26T01:09:11.316Z,25.97
2019-03-26T01:09:48.012Z,22.87
2019-03-26T01:10:29.571Z,23.50
2019-03-26T01:11:06.046Z,23.57
2019-03-26T01:11:42.558Z,24.98
2019-03-26T01:12:18.962Z,25.32
2019-03-26T01:12:55.403Z,24.95
2019-03-26T01:13:32.114Z,23.62
2019-03-26T01:14:08.600Z,24.87
2019-03-26T01:14:45.079Z,23.87
2019-03-26T01:15:21.311Z,25.32
2019-03-26T01:15:57.664Z,20.92
2019-03-26T01:16:34.199Z,23.87
2019-03-26T01:17:10.600Z,24.98
2019-03-26T01:17:46.954Z,25.02
2019-03-26T01:18:23.403Z,25.17
2019-03-26T01:18:59.753Z,23.42
2019-03-26T01:19:36.189Z,24.12
2019-03-26T01:20:12.599Z,26.12
2019-03-26T01:20:49.021Z,23.05
2019-03-26T01:21:25.695Z,22.87
2019-03-26T01:22:02.372Z,25.43
2019-03-26T01:22:38.898Z,25.45
2019-03-26T01:23:15.353Z,24.55
2019-03-26T01:23:51.919Z,26.00
2019-03-26T01:24:28.344Z,24.32
2019-03-26T01:25:04.726Z,26.15
2019-03-26T01:25:41.138Z,26.15
2019-03-26T01:26:17.512Z,24.65
2019-03-26T01:26:53.967Z,24.60
2019-03-26T01:27:30.322Z,24.90
2019-03-26T01:28:06.955Z,27.73
2019-03-26T01:28:43.324Z,28.75
2019-03-26T01:29:20.043Z,26.40
2019-03-26T01:29:56.650Z,24.60
2019-03-26T01:30:33.043Z,26.30
2019-03-26T01:31:09.399Z,26.90
2019-03-26T01:31:46.073Z,25.55
2019-03-26T01:32:22.784Z,24.57
2019-03-26T01:32:59.401Z,25.02
2019-03-26T01:33:35.762Z,25.90
2019-03-26T01:34:12.207Z,25.50
2019-03-26T01:34:48.578Z,26.75
2019-03-26T01:35:25.083Z,26.25
2019-03-26T01:36:01.458Z,26.85
2019-03-26T01:36:37.801Z,27.27
2019-03-26T01:37:14.018Z,25.20
2019-03-26T01:37:50.530Z,26.87
2019-03-26T01:38:26.930Z,28.05
2019-03-26T01:39:03.310Z,26.25
2019-03-26T01:39:39.680Z,28.12
2019-03-26T01:40:16.275Z,25.88
2019-03-26T01:40:52.741Z,26.57
2019-03-26T01:41:29.333Z,25.65
2019-03-26T01:42:05.817Z,25.65
2019-03-26T01:42:42.763Z,26.93
2019-03-26T01:43:19.021Z,26.95
2019-03-26T01:43:55.690Z,23.77
2019-03-26T01:44:32.048Z,25.57
2019-03-26T01:45:09.609Z,24.50
2019-03-26T01:45:45.998Z,26.90
2019-03-26T01:46:22.429Z,26.23
2019-03-26T01:46:58.784Z,27.05
2019-03-26T01:47:34.984Z,25.55
2019-03-26T01:48:11.244Z,27.17
2019-03-26T01:48:47.549Z,24.87
2019-03-26T01:49:23.908Z,26.00
2019-03-26T01:50:00.345Z,26.05
2019-03-26T01:50:36.566Z,25.45
2019-03-26T01:51:12.947Z,27.40
2019-03-26T01:51:49.315Z,27.62
2019-03-26T01:52:25.684Z,24.65
2019-03-26T01:53:01.873Z,26.73
2019-03-26T01:53:38.303Z,25.85
2019-03-26T01:54:14.621Z,27.48
2019-03-26T01:54:50.995Z,26.33
2019-03-26T01:55:27.344Z,28.67
2019-03-26T01:56:03.795Z,29.02
2019-03-26T01:56:40.174Z,26.33
2019-03-26T01:57:16.865Z,26.82
2019-03-26T01:57:53.120Z,26.17
2019-03-26T01:58:29.648Z,27.85
2019-03-26T01:59:05.936Z,29.72
2019-03-26T01:59:42.478Z,27.55
2019-03-26T02:00:19.426Z,25.82
2019-03-26T02:00:55.875Z,27.48
2019-03-26T02:01:32.234Z,27.77
2019-03-26T02:02:08.568Z,26.40
2019-03-26T02:02:45.243Z,24.60
2019-03-26T02:03:21.646Z,25.50
2019-03-26T02:03:58.078Z,23.10
2019-03-26T02:04:34.417Z,26.15
2019-03-26T02:05:10.776Z,25.68
2019-03-26T02:05:47.169Z,29.67
2019-03-26T02:06:23.482Z,27.67
2019-03-26T02:06:59.830Z,28.40
2019-03-26T02:07:38.808Z,28.83
2019-03-26T02:08:14.009Z,27.93
2019-03-26T02:08:50.501Z,28.62
2019-03-26T02:09:26.741Z,29.75
2019-03-26T02:10:03.120Z,31.20
2019-03-26T02:10:39.526Z,29.32
2019-03-26T02:11:16.030Z,29.92
2019-03-26T02:11:52.519Z,28.27
2019-03-26T02:12:28.828Z,28.57
2019-03-26T02:13:05.283Z,27.82
2019-03-26T02:13:41.882Z,28.02
2019-03-26T02:14:18.210Z,27.22
2019-03-26T02:14:54.537Z,28.45
2019-03-26T02:15:32.428Z,30.20
2019-03-26T02:16:08.946Z,28.47
2019-03-26T02:16:45.318Z,23.12
2019-03-26T02:17:21.625Z,25.97
2019-03-26T02:17:57.879Z,27.90
2019-03-26T02:18:34.221Z,28.52
2019-03-26T02:19:10.740Z,26.35
2019-03-26T02:19:47.135Z,25.20
2019-03-26T02:20:23.511Z,26.05
2019-03-26T02:21:00.055Z,29.07
2019-03-26T02:21:36.491Z,27.93
2019-03-26T02:22:13.020Z,28.70
2019-03-26T02:22:49.039Z,29.27
2019-03-26T02:23:25.765Z,29.55
2019-03-26T02:24:02.315Z,27.07
2019-03-26T02:24:38.569Z,27.70
2019-03-26T02:25:14.982Z,28.57
2019-03-26T02:25:51.384Z,26.75
2019-03-26T02:26:27.845Z,25.02
2019-03-26T02:27:04.269Z,28.30
2019-03-26T02:27:40.624Z,27.30
2019-03-26T02:28:16.971Z,26.37
2019-03-26T02:28:53.843Z,26.30
2019-03-26T02:29:30.406Z,29.40
2019-03-26T02:30:07.108Z,26.05
2019-03-26T02:30:43.517Z,25.88
2019-03-26T02:31:20.059Z,27.02
2019-03-26T02:31:56.495Z,27.82
2019-03-26T02:32:32.965Z,24.15
2019-03-26T02:33:09.488Z,26.20
2019-03-26T02:33:45.785Z,25.68
2019-03-26T02:34:22.167Z,25.20
2019-03-26T02:34:58.535Z,26.87
2019-03-26T02:35:34.957Z,25.62
2019-03-26T02:36:11.192Z,27.25
2019-03-26T02:36:47.415Z,26.75
2019-03-26T02:37:23.791Z,26.82
2019-03-26T02:38:00.137Z,20.27
2019-03-26T02:38:36.850Z,21.12
2019-03-26T02:39:13.360Z,24.00
2019-03-26T02:39:49.764Z,23.57
2019-03-26T02:40:26.232Z,25.65
2019-03-26T02:41:02.704Z,22.15
2019-03-26T02:41:39.097Z,24.05
2019-03-26T02:42:15.640Z,24.72
2019-03-26T02:42:52.047Z,23.38
2019-03-26T02:43:28.590Z,23.22
2019-03-26T02:44:05.021Z,23.77
2019-03-26T02:44:41.355Z,22.32
2019-03-26T02:45:17.842Z,24.77
2019-03-26T02:45:54.390Z,24.00
2019-03-26T02:46:30.669Z,25.77
2019-03-26T02:47:06.871Z,26.95
2019-03-26T02:47:43.206Z,26.48
2019-03-26T02:48:19.781Z,25.70
2019-03-26T02:48:56.274Z,24.37
2019-03-26T02:49:32.662Z,24.15
2019-03-26T02:50:10.229Z,22.35
2019-03-26T02:50:46.545Z,24.20
2019-03-26T02:51:23.444Z,24.43
2019-03-26T02:52:00.005Z,23.77
2019-03-26T02:52:36.503Z,25.32
2019-03-26T02:53:14.586Z,24.92
2019-03-26T02:53:51.196Z,23.67
2019-03-26T02:54:27.688Z,22.80
2019-03-26T02:55:04.238Z,22.02
2019-03-26T02:55:41.086Z,24.80
2019-03-26T02:56:17.385Z,25.97
2019-03-26T02:56:53.718Z,25.75
2019-03-26T02:57:30.215Z,24.18
2019-03-26T02:58:06.823Z,23.80
2019-03-26T02:58:43.228Z,23.30
2019-03-26T02:59:19.843Z,23.45
2019-03-26T02:59:56.485Z,24.27
2019-03-26T03:00:33.467Z,24.45
2019-03-26T03:01:09.801Z,22.90
2019-03-26T03:01:46.315Z,22.85
2019-03-26T03:02:22.965Z,23.20
2019-03-26T03:02:59.401Z,22.60
2019-03-26T03:03:35.838Z,23.65
2019-03-26T03:04:12.102Z,24.43
2019-03-26T03:04:48.591Z,25.37
2019-03-26T03:05:34.937Z,24.45
2019-03-26T03:06:02.876Z,24.50
2019-03-26T03:06:39.248Z,25.15
2019-03-26T03:07:15.821Z,24.07
2019-03-26T03:07:52.522Z,24.77
2019-03-26T03:08:28.927Z,25.48
2019-03-26T03:09:06.817Z,27.35
2019-03-26T03:09:43.140Z,25.60
2019-03-26T03:10:19.774Z,26.00
2019-03-26T03:10:56.222Z,23.20
2019-03-26T03:11:32.915Z,25.75
2019-03-26T03:12:09.281Z,25.72
2019-03-26T03:12:45.691Z,24.77
2019-03-26T03:13:22.259Z,25.62
2019-03-26T03:13:58.864Z,25.05
2019-03-26T03:14:35.280Z,24.30
2019-03-26T03:15:11.890Z,25.40
2019-03-26T03:15:48.326Z,26.80
2019-03-26T03:16:24.768Z,26.93
2019-03-26T03:17:01.371Z,26.45
2019-03-26T03:17:37.642Z,24.60
2019-03-26T03:18:14.270Z,27.70
2019-03-26T03:18:50.588Z,26.50
2019-03-26T03:19:27.066Z,28.27
2019-03-26T03:20:04.298Z,28.92
2019-03-26T03:20:40.781Z,27.17
2019-03-26T03:21:17.103Z,24.98
2019-03-26T03:21:53.449Z,27.07
2019-03-26T03:22:30.058Z,25.95
2019-03-26T03:23:07.060Z,28.67
2019-03-26T03:23:43.295Z,27.58
2019-03-26T03:24:19.632Z,27.35
2019-03-26T03:24:56.058Z,27.85
2019-03-26T03:25:33.184Z,26.52
2019-03-26T03:26:09.621Z,26.93
2019-03-26T03:26:45.933Z,23.12
2019-03-26T03:27:23.400Z,26.57
2019-03-26T03:28:00.037Z,25.92
2019-03-26T03:28:36.409Z,27.20
2019-03-26T03:29:12.826Z,24.65
2019-03-26T03:29:49.400Z,26.45
2019-03-26T03:30:25.740Z,24.87
2019-03-26T03:31:02.076Z,23.00
2019-03-26T03:31:38.452Z,24.23
2019-03-26T03:32:15.107Z,27.05
2019-03-26T03:32:52.048Z,26.95
2019-03-26T03:33:28.430Z,24.85
2019-03-26T03:34:04.829Z,24.87
2019-03-26T03:34:41.334Z,26.15
2019-03-26T03:35:17.710Z,28.23
2019-03-26T03:35:54.187Z,26.68
2019-03-26T03:36:30.649Z,24.63
2019-03-26T03:37:07.093Z,23.92
2019-03-26T03:37:43.655Z,27.15
2019-03-26T03:38:20.121Z,21.05
2019-03-26T03:38:56.536Z,26.27
2019-03-26T03:39:32.963Z,25.02
2019-03-26T03:40:09.901Z,25.37
2019-03-26T03:40:46.430Z,24.18
2019-03-26T03:41:22.788Z,26.02
2019-03-26T03:41:59.109Z,25.37
2019-03-26T03:42:35.872Z,26.73
2019-03-26T03:43:12.426Z,24.00
2019-03-26T03:43:48.889Z,26.27
2019-03-26T03:44:25.270Z,27.25
2019-03-26T03:45:01.626Z,24.92
2019-03-26T03:45:39.426Z,27.30
2019-03-26T03:46:15.966Z,24.40
2019-03-26T03:46:54.030Z,26.27
2019-03-26T03:47:33.901Z,24.55
2019-03-26T03:48:11.266Z,26.68
2019-03-26T03:48:48.145Z,24.27
2019-03-26T03:49:26.164Z,25.30
2019-03-26T03:50:02.987Z,24.70
2019-03-26T03:50:39.947Z,24.23
2019-03-26T03:51:19.243Z,25.82
2019-03-26T03:51:57.160Z,26.85
2019-03-26T03:52:39.734Z,24.27
2019-03-26T03:53:18.079Z,24.32
2019-03-26T03:53:54.373Z,24.20
2019-03-26T03:54:31.992Z,25.65
2019-03-26T03:55:08.585Z,24.85
2019-03-26T03:55:45.442Z,24.85
2019-03-26T03:56:23.870Z,26.02
2019-03-26T03:57:01.892Z,25.65
2019-03-26T03:57:39.797Z,23.92
2019-03-26T03:58:17.388Z,25.00
2019-03-26T03:58:53.701Z,25.35
2019-03-26T03:59:32.123Z,24.57
2019-03-26T04:00:09.665Z,25.12
2019-03-26T04:00:46.138Z,24.05
2019-03-26T04:01:22.510Z,25.72
2019-03-26T04:01:59.128Z,25.92
2019-03-26T04:02:35.494Z,23.92
2019-03-26T04:03:12.360Z,25.77
2019-03-26T04:03:48.715Z,24.43
2019-03-26T04:04:25.008Z,24.30
2019-03-26T04:05:01.605Z,25.05
2019-03-26T04:05:38.262Z,26.35
2019-03-26T04:06:14.822Z,24.43
2019-03-26T04:06:51.212Z,25.72
2019-03-26T04:07:27.877Z,25.57
2019-03-26T04:08:04.393Z,26.00
2019-03-26T04:08:40.794Z,23.70
2019-03-26T04:09:17.121Z,24.52
2019-03-26T04:09:53.485Z,25.85
2019-03-26T04:10:29.849Z,25.37
2019-03-26T04:11:06.279Z,25.70
2019-03-26T04:11:42.780Z,25.27
2019-03-26T04:12:19.353Z,24.82
2019-03-26T04:12:55.973Z,26.05
2019-03-26T04:13:32.313Z,24.57
2019-03-26T04:14:08.769Z,23.90
2019-03-26T04:14:45.133Z,24.37
2019-03-26T04:15:21.561Z,24.32
2019-03-26T04:15:57.939Z,24.35
2019-03-26T04:16:34.189Z,24.47
2019-03-26T04:17:10.505Z,26.55
2019-03-26T04:17:46.908Z,26.70
2019-03-26T04:18:23.366Z,25.97
2019-03-26T04:18:59.813Z,24.60
2019-03-26T04:19:36.053Z,26.10
2019-03-26T04:20:12.572Z,25.40
2019-03-26T04:20:49.056Z,26.40
2019-03-26T04:21:25.410Z,24.27
2019-03-26T04:22:01.785Z,25.10
2019-03-26T04:22:38.069Z,24.98
2019-03-26T04:23:14.602Z,23.98
2019-03-26T04:23:50.994Z,24.20
2019-03-26T04:24:27.492Z,25.60
2019-03-26T04:25:03.853Z,25.05
2019-03-26T04:25:40.298Z,26.33
2019-03-26T04:26:16.904Z,26.25
2019-03-26T04:26:53.272Z,24.60
2019-03-26T04:27:29.786Z,26.82
2019-03-26T04:28:06.728Z,25.35
2019-03-26T04:28:43.276Z,24.40
2019-03-26T04:29:19.810Z,25.75
2019-03-26T04:29:56.152Z,25.23
2019-03-26T04:30:33.877Z,25.48
2019-03-26T04:31:10.284Z,26.30
2019-03-26T04:31:46.459Z,26.00
2019-03-26T04:32:22.821Z,22.13
2019-03-26T04:32:59.290Z,22.87
2019-03-26T04:33:35.925Z,22.80
2019-03-26T04:34:12.240Z,22.90
2019-03-26T04:34:48.782Z,25.52
2019-03-26T04:35:25.090Z,25.43
2019-03-26T04:36:01.716Z,26.17
2019-03-26T04:36:38.205Z,24.18
2019-03-26T04:37:14.525Z,25.75
2019-03-26T04:37:51.177Z,25.97
2019-03-26T04:38:27.502Z,26.10
2019-03-26T04:39:04.068Z,25.27
2019-03-26T04:39:40.974Z,26.90
2019-03-26T04:40:17.209Z,26.33
2019-03-26T04:40:53.737Z,25.55
2019-03-26T04:41:30.255Z,25.50
2019-03-26T04:42:06.657Z,28.05
2019-03-26T04:42:43.003Z,27.35
2019-03-26T04:43:19.623Z,25.00
2019-03-26T04:43:55.985Z,25.90
2019-03-26T04:44:32.292Z,25.82
2019-03-26T04:45:08.819Z,28.17
2019-03-26T04:45:45.440Z,27.20
2019-03-26T04:46:21.682Z,26.68
2019-03-26T04:46:58.143Z,25.95
2019-03-26T04:47:34.391Z,26.85
2019-03-26T04:48:10.976Z,26.70
2019-03-26T04:48:47.424Z,27.87
2019-03-26T04:49:23.964Z,27.90
2019-03-26T04:50:00.398Z,28.25
2019-03-26T04:50:36.847Z,28.60
2019-03-26T04:51:13.192Z,26.93
2019-03-26T04:51:49.553Z,25.77
2019-03-26T04:52:26.014Z,26.82
2019-03-26T04:53:02.437Z,25.80
2019-03-26T04:53:38.846Z,27.40
2019-03-26T04:54:15.254Z,26.90
2019-03-26T04:54:51.818Z,27.07
2019-03-26T04:55:28.297Z,26.52
2019-03-26T04:56:04.667Z,28.32
2019-03-26T04:56:41.040Z,28.12
2019-03-26T04:57:17.349Z,27.40
2019-03-26T04:57:53.713Z,27.58
2019-03-26T04:58:30.054Z,26.40
2019-03-26T04:59:06.513Z,27.98
2019-03-26T04:59:42.830Z,26.93
2019-03-26T05:00:20.390Z,26.40
2019-03-26T05:00:56.857Z,27.27
2019-03-26T05:01:33.223Z,28.47
2019-03-26T05:02:09.579Z,28.45
2019-03-26T05:02:45.879Z,26.37
2019-03-26T05:03:23.190Z,28.87
2019-03-26T05:03:59.554Z,29.18
2019-03-26T05:04:35.912Z,27.98
2019-03-26T05:05:12.596Z,27.93
2019-03-26T05:05:48.988Z,26.82
2019-03-26T05:06:37.401Z,26.12
2019-03-26T05:07:03.534Z,27.85
2019-03-26T05:07:39.798Z,28.67
2019-03-26T05:08:16.625Z,28.47
2019-03-26T05:08:52.966Z,26.73
2019-03-26T05:09:29.573Z,28.27
2019-03-26T05:10:06.743Z,26.70
2019-03-26T05:10:43.147Z,28.47
2019-03-26T05:11:19.730Z,31.10
2019-03-26T05:11:56.171Z,29.57
2019-03-26T05:12:32.648Z,32.05
2019-03-26T05:13:08.996Z,29.72
2019-03-26T05:13:45.740Z,29.70
2019-03-26T05:14:22.127Z,29.15
2019-03-26T05:14:58.568Z,29.95
2019-03-26T05:15:34.874Z,29.90
2019-03-26T05:16:11.367Z,32.00
2019-03-26T05:16:47.993Z,29.90
2019-03-26T05:17:24.457Z,29.87
2019-03-26T05:18:01.022Z,30.00
2019-03-26T05:18:37.590Z,30.08
2019-03-26T05:19:13.879Z,30.05
2019-03-26T05:19:50.398Z,30.43
2019-03-26T05:20:26.740Z,30.60
2019-03-26T05:21:03.084Z,29.80
2019-03-26T05:21:39.541Z,29.02
2019-03-26T05:22:24.170Z,23.90
2019-03-26T05:22:54.047Z,29.75
2019-03-26T05:23:30.416Z,29.60
2019-03-26T05:24:06.671Z,29.85
2019-03-26T05:24:43.355Z,28.20
2019-03-26T05:25:20.270Z,27.82
2019-03-26T05:25:57.369Z,31.50
2019-03-26T05:26:33.913Z,28.42
2019-03-26T05:27:11.264Z,29.32
2019-03-26T05:27:47.790Z,28.98
2019-03-26T05:28:24.244Z,27.98
2019-03-26T05:29:00.578Z,26.07
2019-03-26T05:29:37.389Z,27.25
2019-03-26T05:30:14.530Z,26.42
2019-03-26T05:30:50.954Z,25.30
2019-03-26T05:31:27.307Z,25.20
2019-03-26T05:32:03.752Z,25.60
2019-03-26T05:32:40.222Z,24.77
2019-03-26T05:33:16.605Z,25.45
2019-03-26T05:33:52.964Z,24.57
2019-03-26T05:34:29.368Z,25.88
2019-03-26T05:35:06.027Z,26.20
2019-03-26T05:35:42.555Z,22.00
2019-03-26T05:36:18.913Z,25.80
2019-03-26T05:36:55.530Z,26.23
2019-03-26T05:37:31.844Z,24.18
2019-03-26T05:38:08.590Z,25.62
2019-03-26T05:38:45.334Z,25.82
2019-03-26T05:39:21.736Z,26.40
2019-03-26T05:39:58.185Z,24.35
2019-03-26T05:40:34.510Z,24.35
2019-03-26T05:41:11.229Z,24.65
2019-03-26T05:41:47.600Z,23.57
2019-03-26T05:42:24.287Z,25.30
2019-03-26T05:43:00.639Z,19.37
2019-03-26T05:43:37.502Z,19.85
2019-03-26T05:44:14.143Z,21.23
2019-03-26T05:44:50.383Z,21.60
2019-03-26T05:45:26.749Z,18.77
2019-03-26T05:46:03.330Z,21.37
2019-03-26T05:46:39.835Z,23.87
2019-03-26T05:47:16.135Z,23.47
2019-03-26T05:47:52.492Z,24.15
2019-03-26T05:48:28.878Z,22.07
2019-03-26T05:49:05.552Z,21.12
2019-03-26T05:49:42.334Z,20.05
2019-03-26T05:50:18.955Z,22.93
2019-03-26T05:50:55.517Z,22.55
2019-03-26T05:51:32.041Z,21.40
2019-03-26T05:52:08.831Z,21.73
2019-03-26T05:52:45.291Z,20.85
2019-03-26T05:53:21.719Z,21.95
2019-03-26T05:53:58.573Z,21.73
2019-03-26T05:54:35.059Z,22.98
2019-03-26T05:55:11.449Z,22.22
2019-03-26T05:55:47.817Z,22.52
2019-03-26T05:56:24.257Z,23.32
2019-03-26T05:57:00.798Z,23.05
2019-03-26T05:57:37.629Z,22.98
2019-03-26T05:58:13.820Z,23.80
2019-03-26T05:58:50.197Z,22.98
2019-03-26T05:59:27.342Z,23.67
2019-03-26T06:00:03.707Z,22.65
2019-03-26T06:00:40.768Z,23.77
2019-03-26T06:01:17.277Z,24.75
2019-03-26T06:01:53.579Z,23.10
2019-03-26T06:02:29.860Z,22.82
2019-03-26T06:03:06.202Z,22.32
2019-03-26T06:03:42.568Z,24.40
2019-03-26T06:04:19.190Z,23.02
2019-03-26T06:04:55.488Z,21.37
2019-03-26T06:05:31.842Z,22.02
2019-03-26T06:06:08.236Z,19.73
2019-03-26T06:06:44.744Z,19.62
2019-03-26T06:07:21.211Z,19.30
2019-03-26T06:07:57.770Z,20.15
2019-03-26T06:08:34.073Z,18.40
2019-03-26T06:09:10.561Z,17.92
2019-03-26T06:09:47.399Z,16.77
2019-03-26T06:10:23.702Z,16.67
2019-03-26T06:11:00.141Z,17.48
2019-03-26T06:11:36.572Z,16.42
2019-03-26T06:12:12.988Z,17.73
2019-03-26T06:12:50.404Z,16.20
2019-03-26T06:13:26.685Z,18.52
2019-03-26T06:14:03.255Z,17.30
2019-03-26T06:14:39.632Z,17.92
2019-03-26T06:15:16.053Z,17.85
2019-03-26T06:15:52.527Z,16.65
2019-03-26T06:16:38.301Z,16.97
2019-03-26T06:17:07.182Z,16.25
2019-03-26T06:17:43.714Z,15.30
2019-03-26T06:18:19.923Z,16.05
2019-03-26T06:18:56.271Z,16.75
2019-03-26T06:19:32.670Z,19.52
2019-03-26T06:20:10.742Z,17.57
2019-03-26T06:20:47.634Z,17.32
2019-03-26T06:21:24.216Z,17.48
2019-03-26T06:22:00.638Z,14.85
2019-03-26T06:22:37.721Z,15.28
2019-03-26T06:23:14.126Z,17.02
2019-03-26T06:23:53.493Z,16.42
2019-03-26T06:24:28.486Z,15.88
2019-03-26T06:25:05.246Z,14.43
2019-03-26T06:25:41.732Z,14.40
2019-03-26T06:26:18.398Z,14.40
2019-03-26T06:26:54.693Z,14.07
2019-03-26T06:27:31.014Z,15.45
2019-03-26T06:28:07.258Z,14.93
2019-03-26T06:28:43.697Z,15.35
2019-03-26T06:29:20.383Z,14.10
2019-03-26T06:29:56.734Z,13.30
2019-03-26T06:30:33.190Z,15.05
2019-03-26T06:31:09.638Z,14.40
2019-03-26T06:31:46.235Z,14.07
2019-03-26T06:32:22.561Z,13.25
2019-03-26T06:32:59.106Z,13.15
2019-03-26T06:33:35.661Z,14.33
2019-03-26T06:34:12.239Z,12.68
2019-03-26T06:34:48.864Z,12.43
2019-03-26T06:35:25.325Z,13.15
2019-03-26T06:36:01.594Z,19.75
2019-03-26T06:36:37.833Z,18.42
2019-03-26T06:37:18.137Z,19.98
2019-03-26T06:37:52.796Z,10.35
2019-03-26T06:38:29.076Z,10.80
2019-03-26T06:39:06.992Z,15.93
2019-03-26T06:39:43.209Z,16.30
2019-03-26T06:40:19.822Z,12.80
2019-03-26T06:40:56.217Z,17.35
2019-03-26T06:41:32.683Z,10.68
2019-03-26T06:42:09.095Z,14.43
2019-03-26T06:42:45.622Z,11.43
2019-03-26T06:43:22.112Z,16.15
2019-03-26T06:43:58.455Z,13.88
2019-03-26T06:44:34.771Z,15.13
2019-03-26T06:45:11.889Z,15.80
2019-03-26T06:45:48.135Z,12.88
2019-03-26T06:46:24.571Z,15.00
2019-03-26T06:47:00.989Z,10.13
2019-03-26T06:47:37.927Z,10.78
2019-03-26T06:48:14.400Z,8.85
2019-03-26T06:48:50.765Z,12.15
2019-03-26T06:49:27.034Z,10.15
2019-03-26T06:50:03.616Z,11.70
2019-03-26T06:50:40.000Z,10.00
2019-03-26T06:51:16.378Z,9.05
2019-03-26T06:51:52.918Z,10.38
2019-03-26T06:52:29.422Z,10.88
2019-03-26T06:53:06.082Z,10.05
2019-03-26T06:53:42.613Z,9.20
2019-03-26T06:54:18.945Z,9.28
2019-03-26T06:54:55.655Z,10.30
2019-03-26T06:55:32.065Z,8.43
2019-03-26T06:56:08.301Z,9.43
2019-03-26T06:56:44.871Z,10.70
2019-03-26T06:57:21.130Z,10.18
2019-03-26T06:57:57.467Z,9.38
2019-03-26T06:58:33.745Z,10.32
2019-03-26T06:59:10.148Z,9.98
2019-03-26T06:59:46.893Z,11.08
2019-03-26T07:00:32.018Z,10.20
2019-03-26T07:01:08.644Z,10.43
2019-03-26T07:01:45.256Z,9.88
2019-03-26T07:02:21.980Z,11.43
2019-03-26T07:02:58.304Z,11.38
2019-03-26T07:03:34.876Z,12.43
2019-03-26T07:04:11.467Z,10.70
2019-03-26T07:04:51.628Z,12.13
2019-03-26T07:05:27.977Z,13.15
2019-03-26T07:06:04.482Z,10.85
2019-03-26T07:06:41.097Z,12.07
2019-03-26T07:07:30.544Z,12.13
2019-03-26T07:07:56.286Z,12.85
2019-03-26T07:08:32.816Z,12.13
2019-03-26T07:09:10.007Z,13.45
2019-03-26T07:09:46.264Z,10.93
2019-03-26T07:10:27.211Z,11.20
2019-03-26T07:11:03.676Z,12.20
2019-03-26T07:11:40.560Z,10.80
2019-03-26T07:12:17.075Z,11.90
2019-03-26T07:12:53.418Z,11.78
2019-03-26T07:13:29.884Z,9.70
2019-03-26T07:14:06.465Z,11.25
2019-03-26T07:14:42.884Z,12.00
2019-03-26T07:15:19.278Z,11.88
2019-03-26T07:15:55.627Z,11.03
2019-03-26T07:16:32.096Z,13.30
2019-03-26T07:17:08.631Z,12.30
2019-03-26T07:17:45.220Z,12.23
2019-03-26T07:18:21.549Z,12.90
2019-03-26T07:18:58.202Z,16.00
2019-03-26T07:19:34.664Z,11.97
2019-03-26T07:20:11.537Z,13.95
2019-03-26T07:20:48.102Z,11.12
2019-03-26T07:21:24.546Z,10.18
2019-03-26T07:22:01.047Z,12.95
2019-03-26T07:22:37.516Z,11.40
2019-03-26T07:23:13.745Z,10.32
2019-03-26T07:23:50.142Z,11.33
2019-03-26T07:24:26.542Z,13.58
2019-03-26T07:25:02.960Z,12.90
2019-03-26T07:25:39.416Z,11.70
2019-03-26T07:26:16.066Z,11.83
2019-03-26T07:26:52.443Z,11.93
2019-03-26T07:27:29.241Z,12.23
2019-03-26T07:28:05.667Z,12.82
2019-03-26T07:28:42.084Z,13.30
2019-03-26T07:29:18.485Z,13.10
2019-03-26T07:29:54.963Z,13.55
2019-03-26T07:30:56.164Z,13.55
2019-03-26T07:31:32.496Z,12.00
2019-03-26T07:32:08.866Z,13.50
2019-03-26T07:32:45.202Z,11.30
2019-03-26T07:33:21.428Z,12.13
2019-03-26T07:33:58.325Z,12.78
2019-03-26T07:34:34.625Z,11.48
2019-03-26T07:35:10.998Z,12.30
2019-03-26T07:35:47.408Z,11.85
2019-03-26T07:36:23.704Z,11.63
2019-03-26T07:36:59.885Z,11.63
2019-03-26T07:37:45.059Z,10.90
2019-03-26T07:38:14.143Z,12.10
2019-03-26T07:38:50.619Z,11.80
2019-03-26T07:39:27.285Z,11.68
2019-03-26T07:40:03.605Z,11.60
2019-03-26T07:40:40.050Z,12.95
2019-03-26T07:41:16.315Z,10.48
2019-03-26T07:41:52.605Z,11.63
2019-03-26T07:42:29.054Z,11.65
2019-03-26T07:43:05.901Z,12.50
2019-03-26T07:43:42.444Z,11.57
2019-03-26T07:44:18.899Z,11.22
2019-03-26T07:44:55.520Z,11.88
2019-03-26T07:45:31.876Z,11.63
2019-03-26T07:46:08.102Z,9.90
2019-03-26T07:46:44.541Z,11.88
2019-03-26T07:47:20.886Z,12.47
2019-03-26T07:47:57.292Z,13.70
2019-03-26T07:48:33.855Z,13.25
2019-03-26T07:49:10.397Z,12.88
2019-03-26T07:49:46.759Z,14.63
2019-03-26T07:50:23.120Z,13.48
2019-03-26T07:50:59.461Z,12.93
2019-03-26T07:51:36.203Z,14.65
2019-03-26T07:52:15.456Z,13.78
2019-03-26T07:52:51.005Z,13.88